Terminal Aerodrome Forecast
Issued by NWS

Home | Current Version | Previous Version | Text Only | Print | Product List | Glossary On
Versions: 1 2 3 4 5 6 7 8 9 10 11 12 13 14 15 16 17 18 19 20 21 22 23 24 25
000
FTUS41 KBUF 010541
TAFJHW
TAF
KJHW 010541Z 0106/0206 13011KT 6SM -RA OVC025
     FM011100 17011KT P6SM VCSH OVC007
     FM011400 20008KT P6SM BKN012
     FM011800 26009KT 6SM -SHRA BKN020
     FM020000 31006KT P6SM BKN012
     FM020200 VRB03KT P6SM BKN012
     FM020500 00000KT 6SM -RA OVC012
      AMD LTD TO CLD VIS AND WIND=

USA.gov is the U.S. government's official web portal to all federal, state and local government web resources and services.